VJH587P VTSP-VRMM
Flight info
| Callsign | VJH587P |
|---|---|
| Flight time | 3h 28m |
| Altitude | 38000 |
| Route | UBNEN1B UBNEN L645 IDUDO Y510 MTL T310 TELIG M512 HOKEY HOKEY1A |
| Aircraft | E190/M-SDE1E2E3FGHIJ1J3J4J7P2RWXY/LB1D1G1 |
Departure
| Time | 2026-04-28 17:01 |
|---|---|
| Airport | Phuket International Airport (VTSP) |
Arrival
| Time | 2026-04-28 20:30 |
|---|---|
| Airport | Velana International Airport (VRMM) |
| Time | Latitude | Longitude | Altitude | Speed | Heading |
|---|---|---|---|---|---|
| 2026-04-28 15:56 | 8.10449 | 98.30441 | 36 ft | 0 kts | 105° |
| 2026-04-28 16:48 | 8.10451 | 98.30431 | 36 ft | 2 kts | 105° |
| 2026-04-28 16:49 | 8.10455 | 98.30417 | 35 ft | 2 kts | 105° |
| 2026-04-28 16:49 | 8.10459 | 98.30402 | 35 ft | 2 kts | 105° |
| 2026-04-28 16:49 | 8.10463 | 98.30388 | 35 ft | 2 kts | 105° |
| 2026-04-28 16:49 | 8.10466 | 98.30379 | 35 ft | 1 kts | 105° |
| 2026-04-28 16:50 | 8.10467 | 98.30363 | 34 ft | 2 kts | 76° |
| 2026-04-28 16:50 | 8.10462 | 98.30349 | 34 ft | 2 kts | 53° |
| 2026-04-28 16:50 | 8.10450 | 98.30339 | 34 ft | 2 kts | 28° |
| 2026-04-28 16:50 | 8.10443 | 98.30336 | 34 ft | 1 kts | 14° |
| 2026-04-28 16:51 | 8.10437 | 98.30334 | 34 ft | 0 kts | 14° |
| 2026-04-28 16:52 | 8.10440 | 98.30335 | 34 ft | 0 kts | 14° |
| 2026-04-28 16:53 | 8.10451 | 98.30338 | 34 ft | 2 kts | 15° |
| 2026-04-28 16:53 | 8.10473 | 98.30344 | 34 ft | 4 kts | 15° |
| 2026-04-28 16:53 | 8.10512 | 98.30355 | 34 ft | 7 kts | 15° |
| 2026-04-28 16:53 | 8.10579 | 98.30373 | 33 ft | 11 kts | 14° |
| 2026-04-28 16:54 | 8.10670 | 98.30396 | 33 ft | 14 kts | 14° |
| 2026-04-28 16:54 | 8.10760 | 98.30418 | 33 ft | 12 kts | 15° |
| 2026-04-28 16:54 | 8.10849 | 98.30444 | 32 ft | 13 kts | 14° |
| 2026-04-28 16:54 | 8.10911 | 98.30460 | 32 ft | 13 kts | 15° |
| 2026-04-28 16:55 | 8.11020 | 98.30495 | 33 ft | 11 kts | 28° |
| 2026-04-28 16:55 | 8.11048 | 98.30563 | 34 ft | 10 kts | 85° |
| 2026-04-28 16:55 | 8.11053 | 98.30633 | 35 ft | 9 kts | 85° |
| 2026-04-28 16:55 | 8.11062 | 98.30712 | 36 ft | 13 kts | 84° |
| 2026-04-28 16:56 | 8.11074 | 98.30818 | 37 ft | 15 kts | 83° |
| 2026-04-28 16:56 | 8.11087 | 98.30920 | 39 ft | 14 kts | 79° |
| 2026-04-28 16:56 | 8.11118 | 98.31014 | 40 ft | 14 kts | 82° |
| 2026-04-28 16:56 | 8.11128 | 98.31110 | 42 ft | 14 kts | 84° |
| 2026-04-28 16:57 | 8.11138 | 98.31217 | 45 ft | 16 kts | 85° |
| 2026-04-28 16:57 | 8.11150 | 98.31339 | 50 ft | 18 kts | 84° |
| 2026-04-28 16:57 | 8.11161 | 98.31465 | 57 ft | 18 kts | 84° |
| 2026-04-28 16:57 | 8.11173 | 98.31592 | 64 ft | 18 kts | 84° |
| 2026-04-28 16:58 | 8.11185 | 98.31719 | 72 ft | 17 kts | 84° |
| 2026-04-28 16:58 | 8.11196 | 98.31839 | 81 ft | 16 kts | 84° |
| 2026-04-28 16:58 | 8.11208 | 98.31956 | 88 ft | 16 kts | 84° |
| 2026-04-28 16:58 | 8.11220 | 98.32076 | 96 ft | 18 kts | 85° |
| 2026-04-28 16:59 | 8.11233 | 98.32216 | 101 ft | 21 kts | 84° |
| 2026-04-28 16:59 | 8.11247 | 98.32377 | 104 ft | 24 kts | 85° |
| 2026-04-28 16:59 | 8.11266 | 98.32561 | 100 ft | 27 kts | 83° |
| 2026-04-28 16:59 | 8.11287 | 98.32760 | 97 ft | 29 kts | 84° |
| 2026-04-28 17:00 | 8.11303 | 98.32929 | 101 ft | 18 kts | 84° |
| 2026-04-28 17:00 | 8.11353 | 98.33015 | 103 ft | 13 kts | 20° |
| 2026-04-28 17:00 | 8.11437 | 98.33000 | 105 ft | 11 kts | 310° |
| 2026-04-28 17:00 | 8.11440 | 98.32914 | 103 ft | 13 kts | 265° |
| 2026-04-28 17:01 | 8.11426 | 98.32768 | 100 ft | 47 kts | 264° |
| 2026-04-28 17:01 | 8.11366 | 98.32146 | 95 ft | 127 kts | 264° |
| 2026-04-28 17:01 | 8.11250 | 98.31059 | 255 ft | 171 kts | 263° |
| 2026-04-28 17:01 | 8.11090 | 98.29818 | 882 ft | 189 kts | 266° |
| 2026-04-28 17:02 | 8.11022 | 98.28517 | 1731 ft | 189 kts | 269° |
| 2026-04-28 17:02 | 8.10981 | 98.27606 | 2038 ft | 203 kts | 269° |
| 2026-04-28 17:02 | 8.10878 | 98.25581 | 2698 ft | 230 kts | 268° |
| 2026-04-28 17:02 | 8.10786 | 98.23927 | 3322 ft | 246 kts | 268° |
| 2026-04-28 17:03 | 8.10569 | 98.20197 | 4508 ft | 281 kts | 267° |
| 2026-04-28 17:03 | 8.10453 | 98.18241 | 5350 ft | 286 kts | 267° |
| 2026-04-28 17:03 | 8.10333 | 98.16231 | 6242 ft | 289 kts | 266° |
| 2026-04-28 17:04 | 8.10091 | 98.12186 | 7903 ft | 294 kts | 267° |
| 2026-04-28 17:04 | 8.09982 | 98.10144 | 8654 ft | 298 kts | 268° |
| 2026-04-28 17:05 | 8.09830 | 98.05964 | 10164 ft | 303 kts | 268° |
| 2026-04-28 17:05 | 8.09752 | 98.03818 | 10808 ft | 309 kts | 268° |
| 2026-04-28 17:05 | 8.09673 | 98.01629 | 11322 ft | 320 kts | 268° |
| 2026-04-28 17:06 | 8.09505 | 97.97007 | 12334 ft | 340 kts | 268° |
| 2026-04-28 17:06 | 8.09417 | 97.94611 | 12958 ft | 345 kts | 268° |
| 2026-04-28 17:06 | 8.09239 | 97.89745 | 14296 ft | 350 kts | 268° |
| 2026-04-28 17:07 | 8.09150 | 97.87315 | 14892 ft | 355 kts | 268° |
| 2026-04-28 17:07 | 8.09058 | 97.84816 | 15473 ft | 359 kts | 268° |
| 2026-04-28 17:07 | 8.08965 | 97.82291 | 16024 ft | 364 kts | 268° |
| 2026-04-28 17:07 | 8.08861 | 97.79705 | 16601 ft | 368 kts | 267° |
| 2026-04-28 17:08 | 8.08732 | 97.77142 | 17135 ft | 373 kts | 267° |
| 2026-04-28 17:08 | 8.08600 | 97.74532 | 17686 ft | 376 kts | 266° |
| 2026-04-28 17:08 | 8.08467 | 97.71890 | 18240 ft | 379 kts | 267° |
| 2026-04-28 17:08 | 8.08332 | 97.69226 | 18784 ft | 382 kts | 267° |
| 2026-04-28 17:09 | 8.08196 | 97.66538 | 19311 ft | 385 kts | 267° |
| 2026-04-28 17:09 | 8.08059 | 97.63837 | 19809 ft | 388 kts | 267° |
| 2026-04-28 17:09 | 8.07923 | 97.61146 | 20310 ft | 391 kts | 267° |
| 2026-04-28 17:09 | 8.07782 | 97.58371 | 20793 ft | 394 kts | 267° |
| 2026-04-28 17:10 | 8.07643 | 97.55632 | 21276 ft | 396 kts | 267° |
| 2026-04-28 17:10 | 8.07497 | 97.52856 | 21725 ft | 399 kts | 267° |
| 2026-04-28 17:10 | 8.07350 | 97.50076 | 22119 ft | 403 kts | 267° |
| 2026-04-28 17:10 | 8.07199 | 97.47237 | 22585 ft | 405 kts | 268° |
| 2026-04-28 17:11 | 8.07047 | 97.44380 | 23035 ft | 408 kts | 268° |
| 2026-04-28 17:11 | 8.06897 | 97.41546 | 23498 ft | 410 kts | 268° |
| 2026-04-28 17:11 | 8.06743 | 97.38655 | 23948 ft | 413 kts | 268° |
| 2026-04-28 17:11 | 8.06589 | 97.35768 | 24392 ft | 415 kts | 268° |
| 2026-04-28 17:12 | 8.06434 | 97.32853 | 24796 ft | 418 kts | 268° |
| 2026-04-28 17:12 | 8.06278 | 97.29928 | 25221 ft | 420 kts | 268° |
| 2026-04-28 17:12 | 8.06119 | 97.26970 | 25637 ft | 423 kts | 268° |
| 2026-04-28 17:12 | 8.05961 | 97.24021 | 26055 ft | 425 kts | 268° |
| 2026-04-28 17:13 | 8.05814 | 97.21066 | 26443 ft | 427 kts | 270° |
| 2026-04-28 17:13 | 8.05726 | 97.18049 | 26836 ft | 429 kts | 270° |
| 2026-04-28 17:13 | 8.05639 | 97.15071 | 27267 ft | 429 kts | 270° |
| 2026-04-28 17:13 | 8.05550 | 97.12036 | 27675 ft | 431 kts | 270° |
| 2026-04-28 17:14 | 8.05462 | 97.09042 | 28052 ft | 433 kts | 270° |
| 2026-04-28 17:14 | 8.05372 | 97.06001 | 28413 ft | 435 kts | 270° |
| 2026-04-28 17:14 | 8.05281 | 97.02948 | 28745 ft | 438 kts | 270° |
| 2026-04-28 17:14 | 8.05189 | 96.99857 | 29065 ft | 440 kts | 270° |
| 2026-04-28 17:15 | 8.05097 | 96.96777 | 29378 ft | 443 kts | 270° |
| 2026-04-28 17:15 | 8.05003 | 96.93648 | 29695 ft | 446 kts | 270° |
| 2026-04-28 17:15 | 8.04910 | 96.90522 | 30016 ft | 448 kts | 270° |
| 2026-04-28 17:15 | 8.04816 | 96.87403 | 30373 ft | 449 kts | 270° |
| 2026-04-28 17:16 | 8.04721 | 96.84246 | 30705 ft | 451 kts | 270° |
| 2026-04-28 17:16 | 8.04626 | 96.81084 | 31021 ft | 452 kts | 270° |
| 2026-04-28 17:16 | 8.04530 | 96.77943 | 31319 ft | 454 kts | 270° |
| 2026-04-28 17:16 | 8.04433 | 96.74736 | 31641 ft | 455 kts | 270° |
| 2026-04-28 17:17 | 8.04336 | 96.71550 | 32025 ft | 455 kts | 270° |
| 2026-04-28 17:17 | 8.04238 | 96.68326 | 32432 ft | 454 kts | 271° |
| 2026-04-28 17:17 | 8.04140 | 96.65119 | 32857 ft | 453 kts | 270° |
| 2026-04-28 17:17 | 8.04042 | 96.61949 | 33322 ft | 452 kts | 270° |
| 2026-04-28 17:18 | 8.03946 | 96.58794 | 33832 ft | 449 kts | 270° |
| 2026-04-28 17:18 | 8.03848 | 96.55630 | 34320 ft | 447 kts | 270° |
| 2026-04-28 17:18 | 8.03752 | 96.52531 | 34848 ft | 444 kts | 271° |
| 2026-04-28 17:18 | 8.03656 | 96.49445 | 35367 ft | 440 kts | 271° |
| 2026-04-28 17:19 | 8.03562 | 96.46393 | 35824 ft | 438 kts | 271° |
| 2026-04-28 17:19 | 8.03466 | 96.43314 | 36250 ft | 437 kts | 271° |
| 2026-04-28 17:19 | 8.03371 | 96.40276 | 36629 ft | 436 kts | 270° |
| 2026-04-28 17:19 | 8.03276 | 96.37234 | 36993 ft | 435 kts | 270° |
| 2026-04-28 17:20 | 8.03180 | 96.34161 | 37330 ft | 435 kts | 270° |
| 2026-04-28 17:20 | 8.03117 | 96.32152 | 37548 ft | 435 kts | 270° |
| 2026-04-28 17:20 | 8.02989 | 96.28113 | 37849 ft | 428 kts | 270° |
| 2026-04-28 17:20 | 8.02895 | 96.25113 | 37866 ft | 433 kts | 270° |
| 2026-04-28 17:21 | 8.02700 | 96.18941 | 37873 ft | 445 kts | 270° |
| 2026-04-28 17:22 | 8.02398 | 96.09460 | 37871 ft | 461 kts | 270° |
| 2026-04-28 17:22 | 8.02190 | 96.02960 | 37865 ft | 462 kts | 270° |
| 2026-04-28 17:23 | 8.01878 | 95.93304 | 37865 ft | 461 kts | 270° |
| 2026-04-28 17:23 | 8.01669 | 95.86861 | 37857 ft | 462 kts | 270° |
| 2026-04-28 17:24 | 8.01459 | 95.80407 | 37851 ft | 462 kts | 270° |
| 2026-04-28 17:24 | 8.01246 | 95.73908 | 37847 ft | 462 kts | 270° |
| 2026-04-28 17:25 | 8.00926 | 95.64215 | 37845 ft | 462 kts | 270° |
| 2026-04-28 17:26 | 8.00712 | 95.57748 | 37846 ft | 463 kts | 269° |
| 2026-04-28 17:26 | 8.00496 | 95.51275 | 37846 ft | 463 kts | 269° |
| 2026-04-28 17:27 | 8.00339 | 95.44808 | 37845 ft | 463 kts | 270° |
| 2026-04-28 17:27 | 8.00189 | 95.38303 | 37847 ft | 464 kts | 270° |
| 2026-04-28 17:28 | 8.00038 | 95.31843 | 37843 ft | 463 kts | 270° |
| 2026-04-28 17:28 | 7.99810 | 95.22099 | 37845 ft | 465 kts | 270° |
| 2026-04-28 17:29 | 7.99655 | 95.15578 | 37844 ft | 465 kts | 270° |
| 2026-04-28 17:30 | 7.99423 | 95.05833 | 37843 ft | 464 kts | 270° |
| 2026-04-28 17:30 | 7.99187 | 94.96067 | 37844 ft | 465 kts | 270° |
| 2026-04-28 17:31 | 7.98949 | 94.86307 | 37846 ft | 465 kts | 270° |
| 2026-04-28 17:32 | 7.98709 | 94.76551 | 37844 ft | 466 kts | 270° |
| 2026-04-28 17:32 | 7.98548 | 94.70039 | 37845 ft | 467 kts | 269° |
| 2026-04-28 17:33 | 7.98385 | 94.63494 | 37844 ft | 467 kts | 269° |
| 2026-04-28 17:33 | 7.98276 | 94.59147 | 37844 ft | 466 kts | 269° |
| 2026-04-28 17:34 | 7.98057 | 94.50463 | 37842 ft | 467 kts | 269° |
| 2026-04-28 17:34 | 7.97891 | 94.43927 | 37856 ft | 466 kts | 269° |
| 2026-04-28 17:35 | 7.97602 | 94.37437 | 37869 ft | 466 kts | 268° |
| 2026-04-28 17:35 | 7.97234 | 94.30886 | 37862 ft | 467 kts | 268° |
| 2026-04-28 17:36 | 7.96872 | 94.24384 | 37863 ft | 468 kts | 267° |
| 2026-04-28 17:36 | 7.96506 | 94.17841 | 37863 ft | 466 kts | 267° |
| 2026-04-28 17:37 | 7.96141 | 94.11327 | 37864 ft | 468 kts | 267° |
| 2026-04-28 17:37 | 7.95776 | 94.04832 | 37863 ft | 466 kts | 267° |
| 2026-04-28 17:38 | 7.95409 | 93.98317 | 37865 ft | 465 kts | 267° |
| 2026-04-28 17:38 | 7.95040 | 93.91801 | 37866 ft | 467 kts | 267° |
| 2026-04-28 17:39 | 7.94670 | 93.85263 | 37865 ft | 469 kts | 267° |
| 2026-04-28 17:40 | 7.94112 | 93.75446 | 37868 ft | 467 kts | 267° |
| 2026-04-28 17:40 | 7.93740 | 93.68928 | 37867 ft | 468 kts | 267° |
| 2026-04-28 17:41 | 7.93366 | 93.62400 | 37866 ft | 468 kts | 267° |
| 2026-04-28 17:41 | 7.92991 | 93.55853 | 37867 ft | 469 kts | 267° |
| 2026-04-28 17:42 | 7.92614 | 93.49301 | 37866 ft | 468 kts | 267° |
| 2026-04-28 17:42 | 7.92259 | 93.42766 | 37867 ft | 469 kts | 267° |
| 2026-04-28 17:43 | 7.91898 | 93.36173 | 37870 ft | 470 kts | 267° |
| 2026-04-28 17:43 | 7.91537 | 93.29578 | 37865 ft | 472 kts | 267° |
| 2026-04-28 17:44 | 7.91176 | 93.23018 | 37862 ft | 472 kts | 267° |
| 2026-04-28 17:44 | 7.90812 | 93.16417 | 37858 ft | 471 kts | 267° |
| 2026-04-28 17:45 | 7.90446 | 93.09807 | 37864 ft | 471 kts | 267° |
| 2026-04-28 17:45 | 7.90082 | 93.03245 | 37854 ft | 472 kts | 267° |
| 2026-04-28 17:46 | 7.89716 | 92.96652 | 37846 ft | 472 kts | 267° |
| 2026-04-28 17:46 | 7.89348 | 92.90059 | 37841 ft | 474 kts | 267° |
| 2026-04-28 17:47 | 7.88980 | 92.83477 | 37843 ft | 473 kts | 267° |
| 2026-04-28 17:47 | 7.88608 | 92.76851 | 37845 ft | 473 kts | 267° |
| 2026-04-28 17:48 | 7.88237 | 92.70258 | 37845 ft | 473 kts | 267° |
| 2026-04-28 17:48 | 7.87863 | 92.63622 | 37840 ft | 473 kts | 267° |
| 2026-04-28 17:49 | 7.87490 | 92.57025 | 37844 ft | 474 kts | 267° |
| 2026-04-28 17:49 | 7.87113 | 92.50380 | 37844 ft | 474 kts | 267° |
| 2026-04-28 17:50 | 7.86737 | 92.43780 | 37846 ft | 474 kts | 266° |
| 2026-04-28 17:50 | 7.86360 | 92.37177 | 37846 ft | 474 kts | 266° |
| 2026-04-28 17:51 | 7.85980 | 92.30527 | 37842 ft | 475 kts | 266° |
| 2026-04-28 17:51 | 7.85600 | 92.23905 | 37847 ft | 475 kts | 266° |
| 2026-04-28 17:52 | 7.85218 | 92.17253 | 37857 ft | 474 kts | 266° |
| 2026-04-28 17:52 | 7.84644 | 92.07320 | 37862 ft | 475 kts | 266° |
| 2026-04-28 17:53 | 7.84261 | 92.00702 | 37866 ft | 474 kts | 266° |
| 2026-04-28 17:53 | 7.83877 | 91.94091 | 37865 ft | 474 kts | 266° |
| 2026-04-28 17:54 | 7.83489 | 91.87424 | 37863 ft | 473 kts | 266° |
| 2026-04-28 17:54 | 7.83103 | 91.80810 | 37867 ft | 473 kts | 266° |
| 2026-04-28 17:55 | 7.82717 | 91.74210 | 37866 ft | 473 kts | 266° |
| 2026-04-28 17:55 | 7.82329 | 91.67596 | 37865 ft | 473 kts | 266° |
| 2026-04-28 17:56 | 7.81982 | 91.61005 | 37866 ft | 472 kts | 266° |
| 2026-04-28 17:56 | 7.81633 | 91.54397 | 37864 ft | 473 kts | 266° |
| 2026-04-28 17:57 | 7.81282 | 91.47776 | 37866 ft | 472 kts | 266° |
| 2026-04-28 17:57 | 7.80934 | 91.41225 | 37865 ft | 472 kts | 266° |
| 2026-04-28 17:58 | 7.80583 | 91.34645 | 37866 ft | 470 kts | 266° |
| 2026-04-28 17:58 | 7.80231 | 91.28059 | 37862 ft | 470 kts | 266° |
| 2026-04-28 17:59 | 7.79880 | 91.21519 | 37858 ft | 471 kts | 266° |
| 2026-04-28 17:59 | 7.79526 | 91.14927 | 37854 ft | 471 kts | 266° |
| 2026-04-28 18:00 | 7.79173 | 91.08374 | 37846 ft | 471 kts | 266° |
| 2026-04-28 18:00 | 7.78817 | 91.01789 | 37845 ft | 470 kts | 266° |
| 2026-04-28 18:01 | 7.78462 | 90.95242 | 37844 ft | 469 kts | 266° |
| 2026-04-28 18:01 | 7.78106 | 90.88698 | 37844 ft | 470 kts | 266° |
| 2026-04-28 18:02 | 7.77747 | 90.82127 | 37845 ft | 469 kts | 266° |
| 2026-04-28 18:02 | 7.77390 | 90.75594 | 37855 ft | 469 kts | 266° |
| 2026-04-28 18:03 | 7.77032 | 90.69074 | 37865 ft | 467 kts | 266° |
| 2026-04-28 18:03 | 7.76673 | 90.62530 | 37865 ft | 467 kts | 266° |
| 2026-04-28 18:04 | 7.76312 | 90.55997 | 37865 ft | 467 kts | 266° |
| 2026-04-28 18:04 | 7.75952 | 90.49479 | 37865 ft | 467 kts | 265° |
| 2026-04-28 18:05 | 7.75652 | 90.44064 | 37865 ft | 466 kts | 266° |
| 2026-04-28 18:05 | 7.75230 | 90.36475 | 37866 ft | 466 kts | 265° |
| 2026-04-28 18:06 | 7.74866 | 90.29957 | 37864 ft | 466 kts | 265° |
| 2026-04-28 18:06 | 7.74503 | 90.23463 | 37864 ft | 465 kts | 265° |
| 2026-04-28 18:07 | 7.74140 | 90.16989 | 37864 ft | 465 kts | 265° |
| 2026-04-28 18:07 | 7.73774 | 90.10477 | 37854 ft | 465 kts | 265° |
| 2026-04-28 18:08 | 7.73406 | 90.03957 | 37844 ft | 465 kts | 265° |
| 2026-04-28 18:08 | 7.73041 | 89.97485 | 37845 ft | 465 kts | 265° |
| 2026-04-28 18:09 | 7.72672 | 89.90976 | 37844 ft | 463 kts | 265° |
| 2026-04-28 18:09 | 7.72306 | 89.84534 | 37844 ft | 464 kts | 265° |
| 2026-04-28 18:10 | 7.71934 | 89.78020 | 37844 ft | 464 kts | 265° |
| 2026-04-28 18:10 | 7.71565 | 89.71561 | 37845 ft | 464 kts | 265° |
| 2026-04-28 18:11 | 7.71194 | 89.65081 | 37844 ft | 464 kts | 265° |
| 2026-04-28 18:11 | 7.70821 | 89.58592 | 37844 ft | 464 kts | 266° |
| 2026-04-28 18:12 | 7.70448 | 89.52101 | 37844 ft | 465 kts | 266° |
| 2026-04-28 18:12 | 7.70072 | 89.45593 | 37845 ft | 464 kts | 266° |
| 2026-04-28 18:13 | 7.69697 | 89.39116 | 37844 ft | 463 kts | 266° |
| 2026-04-28 18:13 | 7.69323 | 89.32654 | 37843 ft | 463 kts | 266° |
| 2026-04-28 18:14 | 7.69086 | 89.26219 | 37843 ft | 462 kts | 267° |
| 2026-04-28 18:14 | 7.68845 | 89.19731 | 37843 ft | 463 kts | 267° |
| 2026-04-28 18:15 | 7.68602 | 89.13250 | 37843 ft | 463 kts | 267° |
| 2026-04-28 18:15 | 7.68360 | 89.06799 | 37843 ft | 462 kts | 267° |
| 2026-04-28 18:16 | 7.68117 | 89.00340 | 37844 ft | 462 kts | 267° |
| 2026-04-28 18:16 | 7.67872 | 88.93890 | 37843 ft | 461 kts | 267° |
| 2026-04-28 18:17 | 7.67627 | 88.87431 | 37843 ft | 461 kts | 267° |
| 2026-04-28 18:17 | 7.67381 | 88.80994 | 37846 ft | 461 kts | 267° |
| 2026-04-28 18:18 | 7.67133 | 88.74538 | 37849 ft | 462 kts | 267° |
| 2026-04-28 18:18 | 7.66927 | 88.69192 | 37854 ft | 462 kts | 267° |
| 2026-04-28 18:19 | 7.66636 | 88.61642 | 37862 ft | 462 kts | 267° |
| 2026-04-28 18:19 | 7.66386 | 88.55192 | 37862 ft | 462 kts | 267° |
| 2026-04-28 18:20 | 7.66135 | 88.48745 | 37861 ft | 461 kts | 267° |
| 2026-04-28 18:20 | 7.65881 | 88.42271 | 37862 ft | 461 kts | 267° |
| 2026-04-28 18:21 | 7.65630 | 88.35856 | 37862 ft | 460 kts | 267° |
| 2026-04-28 18:21 | 7.65377 | 88.29437 | 37854 ft | 460 kts | 267° |
| 2026-04-28 18:22 | 7.65123 | 88.23003 | 37843 ft | 460 kts | 267° |
| 2026-04-28 18:22 | 7.64868 | 88.16572 | 37843 ft | 460 kts | 267° |
| 2026-04-28 18:23 | 7.64612 | 88.10153 | 37844 ft | 460 kts | 267° |
| 2026-04-28 18:23 | 7.64354 | 88.03696 | 37845 ft | 461 kts | 267° |
| 2026-04-28 18:24 | 7.64042 | 87.98356 | 37844 ft | 461 kts | 265° |
| 2026-04-28 18:24 | 7.63584 | 87.90863 | 37843 ft | 460 kts | 265° |
| 2026-04-28 18:25 | 7.63191 | 87.84444 | 37843 ft | 458 kts | 265° |
| 2026-04-28 18:26 | 7.62602 | 87.74820 | 37846 ft | 459 kts | 266° |
| 2026-04-28 18:26 | 7.62207 | 87.68404 | 37842 ft | 459 kts | 266° |
| 2026-04-28 18:27 | 7.61814 | 87.62016 | 37844 ft | 460 kts | 265° |
| 2026-04-28 18:27 | 7.61417 | 87.55597 | 37845 ft | 459 kts | 266° |
| 2026-04-28 18:28 | 7.61020 | 87.49190 | 37843 ft | 458 kts | 265° |
| 2026-04-28 18:28 | 7.60624 | 87.42794 | 37844 ft | 458 kts | 265° |
| 2026-04-28 18:29 | 7.60227 | 87.36418 | 37843 ft | 458 kts | 266° |
| 2026-04-28 18:29 | 7.59827 | 87.30004 | 37842 ft | 459 kts | 265° |
| 2026-04-28 18:30 | 7.59428 | 87.23617 | 37843 ft | 459 kts | 265° |
| 2026-04-28 18:30 | 7.59027 | 87.17219 | 37843 ft | 459 kts | 265° |
| 2026-04-28 18:31 | 7.58623 | 87.10788 | 37844 ft | 458 kts | 265° |
| 2026-04-28 18:31 | 7.58222 | 87.04408 | 37844 ft | 458 kts | 265° |
| 2026-04-28 18:32 | 7.57819 | 86.98029 | 37845 ft | 458 kts | 265° |
| 2026-04-28 18:32 | 7.57416 | 86.91653 | 37846 ft | 458 kts | 266° |
| 2026-04-28 18:33 | 7.57011 | 86.85256 | 37853 ft | 459 kts | 266° |
| 2026-04-28 18:33 | 7.56604 | 86.78855 | 37856 ft | 459 kts | 266° |
| 2026-04-28 18:34 | 7.56194 | 86.72413 | 37856 ft | 459 kts | 266° |
| 2026-04-28 18:34 | 7.55786 | 86.66029 | 37854 ft | 458 kts | 265° |
| 2026-04-28 18:35 | 7.55379 | 86.59652 | 37845 ft | 457 kts | 266° |
| 2026-04-28 18:35 | 7.54908 | 86.53294 | 37844 ft | 457 kts | 264° |
| 2026-04-28 18:36 | 7.54354 | 86.46906 | 37842 ft | 458 kts | 264° |
| 2026-04-28 18:36 | 7.53801 | 86.40502 | 37844 ft | 459 kts | 264° |
| 2026-04-28 18:37 | 7.53252 | 86.34145 | 37841 ft | 458 kts | 265° |
| 2026-04-28 18:37 | 7.52696 | 86.27721 | 37843 ft | 459 kts | 264° |
| 2026-04-28 18:38 | 7.52143 | 86.21341 | 37844 ft | 458 kts | 264° |
| 2026-04-28 18:38 | 7.51589 | 86.14964 | 37844 ft | 458 kts | 264° |
| 2026-04-28 18:39 | 7.51035 | 86.08598 | 37843 ft | 459 kts | 265° |
| 2026-04-28 18:39 | 7.50479 | 86.02213 | 37842 ft | 459 kts | 265° |
| 2026-04-28 18:40 | 7.49923 | 85.95842 | 37842 ft | 459 kts | 265° |
| 2026-04-28 18:40 | 7.49364 | 85.89445 | 37844 ft | 459 kts | 264° |
| 2026-04-28 18:41 | 7.48803 | 85.83047 | 37843 ft | 457 kts | 265° |
| 2026-04-28 18:41 | 7.48244 | 85.76672 | 37844 ft | 459 kts | 264° |
| 2026-04-28 18:42 | 7.47683 | 85.70283 | 37844 ft | 459 kts | 264° |
| 2026-04-28 18:42 | 7.47120 | 85.63887 | 37842 ft | 460 kts | 264° |
| 2026-04-28 18:43 | 7.46555 | 85.57486 | 37846 ft | 460 kts | 264° |
| 2026-04-28 18:43 | 7.45990 | 85.51083 | 37843 ft | 459 kts | 264° |
| 2026-04-28 18:44 | 7.45424 | 85.44683 | 37845 ft | 459 kts | 264° |
| 2026-04-28 18:44 | 7.44574 | 85.35096 | 37845 ft | 459 kts | 264° |
| 2026-04-28 18:45 | 7.43629 | 85.28772 | 37851 ft | 458 kts | 253° |
| 2026-04-28 18:45 | 7.41892 | 85.22588 | 37845 ft | 460 kts | 253° |
| 2026-04-28 18:46 | 7.40155 | 85.16386 | 37841 ft | 461 kts | 253° |
| 2026-04-28 18:46 | 7.38433 | 85.10236 | 37834 ft | 459 kts | 253° |
| 2026-04-28 18:47 | 7.36690 | 85.04018 | 37821 ft | 459 kts | 253° |
| 2026-04-28 18:47 | 7.34962 | 84.97856 | 37824 ft | 459 kts | 253° |
| 2026-04-28 18:48 | 7.33233 | 84.91692 | 37822 ft | 460 kts | 253° |
| 2026-04-28 18:48 | 7.31484 | 84.85461 | 37826 ft | 460 kts | 253° |
| 2026-04-28 18:49 | 7.30324 | 84.81332 | 37827 ft | 460 kts | 253° |
| 2026-04-28 18:49 | 7.28009 | 84.73095 | 37833 ft | 461 kts | 253° |
| 2026-04-28 18:50 | 7.26258 | 84.66867 | 37835 ft | 462 kts | 253° |
| 2026-04-28 18:50 | 7.24518 | 84.60680 | 37840 ft | 461 kts | 253° |
| 2026-04-28 18:51 | 7.22767 | 84.54461 | 37847 ft | 461 kts | 254° |
| 2026-04-28 18:51 | 7.21028 | 84.48286 | 37846 ft | 462 kts | 253° |
| 2026-04-28 18:52 | 7.19274 | 84.42065 | 37846 ft | 462 kts | 253° |
| 2026-04-28 18:52 | 7.17535 | 84.35899 | 37845 ft | 461 kts | 254° |
| 2026-04-28 18:53 | 7.15780 | 84.29678 | 37843 ft | 460 kts | 253° |
| 2026-04-28 18:53 | 7.14037 | 84.23504 | 37843 ft | 461 kts | 254° |
| 2026-04-28 18:54 | 7.12282 | 84.17289 | 37844 ft | 462 kts | 254° |
| 2026-04-28 18:54 | 7.10534 | 84.11102 | 37844 ft | 462 kts | 254° |
| 2026-04-28 18:55 | 7.09126 | 84.05888 | 37844 ft | 462 kts | 255° |
| 2026-04-28 18:55 | 7.07181 | 83.98621 | 37843 ft | 461 kts | 255° |
| 2026-04-28 18:56 | 7.05514 | 83.92400 | 37843 ft | 461 kts | 255° |
| 2026-04-28 18:56 | 7.03853 | 83.86201 | 37843 ft | 462 kts | 255° |
| 2026-04-28 18:57 | 7.02177 | 83.79952 | 37844 ft | 462 kts | 255° |
| 2026-04-28 18:57 | 7.00509 | 83.73735 | 37844 ft | 462 kts | 255° |
| 2026-04-28 18:58 | 6.98824 | 83.67459 | 37843 ft | 463 kts | 255° |
| 2026-04-28 18:58 | 6.97153 | 83.61240 | 37833 ft | 463 kts | 255° |
| 2026-04-28 18:59 | 6.95470 | 83.54978 | 37824 ft | 463 kts | 255° |
| 2026-04-28 18:59 | 6.93799 | 83.48764 | 37823 ft | 463 kts | 255° |
| 2026-04-28 19:00 | 6.92117 | 83.42516 | 37822 ft | 462 kts | 255° |
| 2026-04-28 19:00 | 6.90446 | 83.36309 | 37823 ft | 463 kts | 255° |
| 2026-04-28 19:01 | 6.88760 | 83.30049 | 37822 ft | 465 kts | 255° |
| 2026-04-28 19:01 | 6.87067 | 83.23770 | 37822 ft | 466 kts | 255° |
| 2026-04-28 19:02 | 6.85372 | 83.17485 | 37822 ft | 466 kts | 255° |
| 2026-04-28 19:02 | 6.83678 | 83.11206 | 37822 ft | 465 kts | 255° |
| 2026-04-28 19:03 | 6.81997 | 83.04980 | 37822 ft | 464 kts | 255° |
| 2026-04-28 19:03 | 6.80302 | 82.98704 | 37822 ft | 464 kts | 255° |
| 2026-04-28 19:04 | 6.78617 | 82.92469 | 37823 ft | 465 kts | 254° |
| 2026-04-28 19:04 | 6.76915 | 82.86177 | 37833 ft | 465 kts | 254° |
| 2026-04-28 19:05 | 6.75225 | 82.79932 | 37843 ft | 465 kts | 254° |
| 2026-04-28 19:05 | 6.73527 | 82.73658 | 37842 ft | 465 kts | 255° |
| 2026-04-28 19:06 | 6.72114 | 82.68443 | 37843 ft | 466 kts | 255° |
| 2026-04-28 19:06 | 6.70128 | 82.61115 | 37843 ft | 466 kts | 255° |
| 2026-04-28 19:07 | 6.68434 | 82.54867 | 37842 ft | 465 kts | 254° |
| 2026-04-28 19:07 | 6.66732 | 82.48594 | 37842 ft | 465 kts | 254° |
| 2026-04-28 19:08 | 6.65031 | 82.42328 | 37843 ft | 466 kts | 255° |
| 2026-04-28 19:08 | 6.63329 | 82.36062 | 37844 ft | 465 kts | 255° |
| 2026-04-28 19:09 | 6.61619 | 82.29770 | 37842 ft | 465 kts | 254° |
| 2026-04-28 19:09 | 6.59926 | 82.23542 | 37841 ft | 464 kts | 255° |
| 2026-04-28 19:10 | 6.58215 | 82.17251 | 37841 ft | 465 kts | 255° |
| 2026-04-28 19:10 | 6.56511 | 82.10992 | 37837 ft | 466 kts | 255° |
| 2026-04-28 19:11 | 6.54803 | 82.04720 | 37832 ft | 467 kts | 255° |
| 2026-04-28 19:11 | 6.53092 | 81.98439 | 37827 ft | 466 kts | 255° |
| 2026-04-28 19:12 | 6.51406 | 81.92224 | 37825 ft | 464 kts | 255° |
| 2026-04-28 19:12 | 6.49710 | 81.85926 | 37828 ft | 464 kts | 255° |
| 2026-04-28 19:13 | 6.48024 | 81.79672 | 37826 ft | 465 kts | 255° |
| 2026-04-28 19:13 | 6.46341 | 81.73429 | 37828 ft | 465 kts | 255° |
| 2026-04-28 19:14 | 6.44653 | 81.67174 | 37834 ft | 466 kts | 255° |
| 2026-04-28 19:14 | 6.42956 | 81.60888 | 37840 ft | 466 kts | 255° |
| 2026-04-28 19:15 | 6.41266 | 81.54631 | 37847 ft | 465 kts | 255° |
| 2026-04-28 19:15 | 6.39854 | 81.49406 | 37855 ft | 466 kts | 255° |
| 2026-04-28 19:16 | 6.37882 | 81.42110 | 37863 ft | 465 kts | 255° |
| 2026-04-28 19:16 | 6.36187 | 81.35842 | 37862 ft | 465 kts | 255° |
| 2026-04-28 19:17 | 6.34492 | 81.29579 | 37861 ft | 467 kts | 254° |
| 2026-04-28 19:17 | 6.32795 | 81.23313 | 37866 ft | 466 kts | 254° |
| 2026-04-28 19:18 | 6.31086 | 81.17007 | 37866 ft | 466 kts | 254° |
| 2026-04-28 19:18 | 6.29636 | 81.10689 | 37877 ft | 466 kts | 259° |
| 2026-04-28 19:19 | 6.28416 | 81.04308 | 37874 ft | 464 kts | 258° |
| 2026-04-28 19:19 | 6.27181 | 80.97968 | 37873 ft | 465 kts | 258° |
| 2026-04-28 19:20 | 6.25940 | 80.91605 | 37873 ft | 465 kts | 258° |
| 2026-04-28 19:20 | 6.24700 | 80.85258 | 37869 ft | 465 kts | 258° |
| 2026-04-28 19:21 | 6.23454 | 80.78876 | 37876 ft | 467 kts | 258° |
| 2026-04-28 19:21 | 6.22210 | 80.72514 | 37877 ft | 466 kts | 258° |
| 2026-04-28 19:22 | 6.21370 | 80.68222 | 37870 ft | 465 kts | 258° |
| 2026-04-28 19:22 | 6.19714 | 80.59759 | 37858 ft | 464 kts | 258° |
| 2026-04-28 19:23 | 6.18472 | 80.53419 | 37842 ft | 464 kts | 259° |
| 2026-04-28 19:23 | 6.17224 | 80.47055 | 37846 ft | 465 kts | 259° |
| 2026-04-28 19:24 | 6.15973 | 80.40676 | 37845 ft | 465 kts | 259° |
| 2026-04-28 19:24 | 6.14728 | 80.34333 | 37843 ft | 464 kts | 258° |
| 2026-04-28 19:25 | 6.13458 | 80.28000 | 37841 ft | 464 kts | 258° |
| 2026-04-28 19:25 | 6.12178 | 80.21686 | 37841 ft | 463 kts | 258° |
| 2026-04-28 19:26 | 6.10891 | 80.15337 | 37834 ft | 462 kts | 258° |
| 2026-04-28 19:26 | 6.09608 | 80.09015 | 37828 ft | 462 kts | 258° |
| 2026-04-28 19:27 | 6.08328 | 80.02713 | 37825 ft | 464 kts | 258° |
| 2026-04-28 19:27 | 6.07039 | 79.96368 | 37822 ft | 464 kts | 258° |
| 2026-04-28 19:28 | 6.05757 | 79.90062 | 37823 ft | 463 kts | 258° |
| 2026-04-28 19:28 | 6.04467 | 79.83721 | 37822 ft | 463 kts | 258° |
| 2026-04-28 19:29 | 6.03395 | 79.78455 | 37822 ft | 464 kts | 258° |
| 2026-04-28 19:29 | 6.01886 | 79.71046 | 37824 ft | 464 kts | 258° |
| 2026-04-28 19:30 | 6.00593 | 79.64702 | 37823 ft | 464 kts | 258° |
| 2026-04-28 19:30 | 5.99302 | 79.58374 | 37823 ft | 465 kts | 258° |
| 2026-04-28 19:31 | 5.98008 | 79.52028 | 37822 ft | 464 kts | 258° |
| 2026-04-28 19:31 | 5.96718 | 79.45713 | 37824 ft | 464 kts | 258° |
| 2026-04-28 19:32 | 5.95420 | 79.39358 | 37824 ft | 465 kts | 258° |
| 2026-04-28 19:32 | 5.94123 | 79.33014 | 37834 ft | 464 kts | 258° |
| 2026-04-28 19:33 | 5.92824 | 79.26663 | 37844 ft | 465 kts | 258° |
| 2026-04-28 19:33 | 5.91530 | 79.20345 | 37843 ft | 464 kts | 258° |
| 2026-04-28 19:34 | 5.90228 | 79.13985 | 37840 ft | 465 kts | 258° |
| 2026-04-28 19:34 | 5.88928 | 79.07642 | 37832 ft | 465 kts | 258° |
| 2026-04-28 19:35 | 5.87622 | 79.01273 | 37821 ft | 465 kts | 258° |
| 2026-04-28 19:35 | 5.86327 | 78.94960 | 37825 ft | 465 kts | 258° |
| 2026-04-28 19:36 | 5.85024 | 78.88613 | 37821 ft | 464 kts | 258° |
| 2026-04-28 19:36 | 5.83722 | 78.82275 | 37822 ft | 465 kts | 258° |
| 2026-04-28 19:37 | 5.82679 | 78.76996 | 37821 ft | 464 kts | 259° |
| 2026-04-28 19:37 | 5.81281 | 78.69535 | 37823 ft | 465 kts | 259° |
| 2026-04-28 19:38 | 5.80091 | 78.63211 | 37821 ft | 464 kts | 259° |
| 2026-04-28 19:38 | 5.78893 | 78.56840 | 37823 ft | 464 kts | 259° |
| 2026-04-28 19:39 | 5.77699 | 78.50503 | 37821 ft | 464 kts | 259° |
| 2026-04-28 19:39 | 5.76501 | 78.44141 | 37822 ft | 464 kts | 259° |
| 2026-04-28 19:40 | 5.75305 | 78.37796 | 37823 ft | 463 kts | 259° |
| 2026-04-28 19:40 | 5.74104 | 78.31431 | 37823 ft | 463 kts | 259° |
| 2026-04-28 19:41 | 5.72908 | 78.25098 | 37822 ft | 462 kts | 259° |
| 2026-04-28 19:41 | 5.71718 | 78.18794 | 37822 ft | 464 kts | 259° |
| 2026-04-28 19:42 | 5.70511 | 78.12408 | 37822 ft | 463 kts | 259° |
| 2026-04-28 19:42 | 5.69517 | 78.07153 | 37821 ft | 462 kts | 259° |
| 2026-04-28 19:43 | 5.68088 | 77.99815 | 37817 ft | 460 kts | 255° |
| 2026-04-28 19:43 | 5.66239 | 77.93669 | 37822 ft | 461 kts | 253° |
| 2026-04-28 19:44 | 5.64365 | 77.87509 | 37822 ft | 463 kts | 253° |
| 2026-04-28 19:44 | 5.62486 | 77.81332 | 37822 ft | 463 kts | 253° |
| 2026-04-28 19:45 | 5.60604 | 77.75147 | 37822 ft | 464 kts | 253° |
| 2026-04-28 19:45 | 5.58725 | 77.68974 | 37823 ft | 463 kts | 253° |
| 2026-04-28 19:46 | 5.56846 | 77.62802 | 37822 ft | 463 kts | 253° |
| 2026-04-28 19:46 | 5.54977 | 77.56667 | 37819 ft | 462 kts | 253° |
| 2026-04-28 19:47 | 5.53097 | 77.50500 | 37816 ft | 463 kts | 253° |
| 2026-04-28 19:47 | 5.51217 | 77.44334 | 37827 ft | 464 kts | 253° |
| 2026-04-28 19:48 | 5.49330 | 77.38148 | 37832 ft | 464 kts | 253° |
| 2026-04-28 19:48 | 5.47442 | 77.31960 | 37832 ft | 464 kts | 253° |
| 2026-04-28 19:49 | 5.45553 | 77.25773 | 37828 ft | 464 kts | 253° |
| 2026-04-28 19:49 | 5.43674 | 77.19620 | 37832 ft | 464 kts | 253° |
| 2026-04-28 19:50 | 5.40838 | 77.10337 | 37833 ft | 464 kts | 252° |
| 2026-04-28 19:51 | 5.38960 | 77.04192 | 37833 ft | 464 kts | 252° |
| 2026-04-28 19:51 | 5.37071 | 76.98015 | 37829 ft | 463 kts | 252° |
| 2026-04-28 19:52 | 5.35189 | 76.91864 | 37825 ft | 463 kts | 252° |
| 2026-04-28 19:52 | 5.33295 | 76.85674 | 37822 ft | 463 kts | 252° |
| 2026-04-28 19:53 | 5.31402 | 76.79494 | 37823 ft | 463 kts | 253° |
| 2026-04-28 19:53 | 5.29521 | 76.73349 | 37822 ft | 463 kts | 252° |
| 2026-04-28 19:54 | 5.27626 | 76.67165 | 37823 ft | 463 kts | 253° |
| 2026-04-28 19:54 | 5.25739 | 76.61008 | 37822 ft | 463 kts | 253° |
| 2026-04-28 19:55 | 5.23852 | 76.54855 | 37822 ft | 463 kts | 253° |
| 2026-04-28 19:55 | 5.21969 | 76.48718 | 37823 ft | 463 kts | 253° |
| 2026-04-28 19:56 | 5.20075 | 76.42545 | 37823 ft | 463 kts | 253° |
| 2026-04-28 19:56 | 5.18178 | 76.36365 | 37823 ft | 463 kts | 253° |
| 2026-04-28 19:57 | 5.16286 | 76.30205 | 37822 ft | 462 kts | 253° |
| 2026-04-28 19:57 | 5.14398 | 76.24058 | 37822 ft | 463 kts | 253° |
| 2026-04-28 19:58 | 5.12506 | 76.17902 | 37822 ft | 462 kts | 253° |
| 2026-04-28 19:58 | 5.10624 | 76.11781 | 37822 ft | 462 kts | 253° |
| 2026-04-28 19:59 | 5.08742 | 76.05644 | 37822 ft | 462 kts | 253° |
| 2026-04-28 19:59 | 5.06848 | 75.99477 | 37822 ft | 463 kts | 253° |
| 2026-04-28 20:00 | 5.04956 | 75.93314 | 37823 ft | 462 kts | 253° |
| 2026-04-28 20:00 | 5.03069 | 75.87174 | 37822 ft | 462 kts | 253° |
| 2026-04-28 20:01 | 5.01189 | 75.81055 | 37822 ft | 461 kts | 253° |
| 2026-04-28 20:01 | 4.99303 | 75.74923 | 37822 ft | 461 kts | 253° |
| 2026-04-28 20:02 | 4.97417 | 75.68789 | 37823 ft | 461 kts | 253° |
| 2026-04-28 20:02 | 4.95115 | 75.62775 | 37829 ft | 462 kts | 241° |
| 2026-04-28 20:03 | 4.91918 | 75.57207 | 37821 ft | 462 kts | 240° |
| 2026-04-28 20:03 | 4.88746 | 75.51663 | 37811 ft | 447 kts | 240° |
| 2026-04-28 20:04 | 4.85684 | 75.46312 | 37824 ft | 443 kts | 240° |
| 2026-04-28 20:04 | 4.84149 | 75.43630 | 37722 ft | 446 kts | 240° |
| 2026-04-28 20:04 | 4.82599 | 75.40920 | 37209 ft | 447 kts | 240° |
| 2026-04-28 20:04 | 4.81072 | 75.38253 | 36730 ft | 446 kts | 240° |
| 2026-04-28 20:05 | 4.79528 | 75.35555 | 36242 ft | 446 kts | 240° |
| 2026-04-28 20:05 | 4.77974 | 75.32840 | 35744 ft | 448 kts | 240° |
| 2026-04-28 20:05 | 4.76427 | 75.30138 | 35250 ft | 449 kts | 240° |
| 2026-04-28 20:05 | 4.74867 | 75.27414 | 34754 ft | 451 kts | 240° |
| 2026-04-28 20:06 | 4.73324 | 75.24719 | 34259 ft | 453 kts | 240° |
| 2026-04-28 20:06 | 4.71748 | 75.21968 | 33761 ft | 454 kts | 240° |
| 2026-04-28 20:06 | 4.70166 | 75.19205 | 33254 ft | 457 kts | 240° |
| 2026-04-28 20:06 | 4.68585 | 75.16446 | 32765 ft | 458 kts | 240° |
| 2026-04-28 20:07 | 4.66996 | 75.13672 | 32281 ft | 461 kts | 240° |
| 2026-04-28 20:07 | 4.65929 | 75.11808 | 31942 ft | 461 kts | 240° |
| 2026-04-28 20:07 | 4.63794 | 75.08083 | 31260 ft | 464 kts | 240° |
| 2026-04-28 20:07 | 4.62191 | 75.05284 | 30746 ft | 466 kts | 240° |
| 2026-04-28 20:08 | 4.60585 | 75.02483 | 30232 ft | 467 kts | 240° |
| 2026-04-28 20:08 | 4.58976 | 74.99674 | 29713 ft | 464 kts | 240° |
| 2026-04-28 20:08 | 4.57374 | 74.96880 | 29202 ft | 461 kts | 240° |
| 2026-04-28 20:08 | 4.55769 | 74.94080 | 28692 ft | 458 kts | 240° |
| 2026-04-28 20:09 | 4.54192 | 74.91330 | 28194 ft | 455 kts | 240° |
| 2026-04-28 20:09 | 4.52623 | 74.88594 | 27694 ft | 452 kts | 240° |
| 2026-04-28 20:09 | 4.51075 | 74.85894 | 27201 ft | 449 kts | 240° |
| 2026-04-28 20:09 | 4.49514 | 74.83173 | 26700 ft | 446 kts | 240° |
| 2026-04-28 20:10 | 4.47992 | 74.80518 | 26216 ft | 444 kts | 240° |
| 2026-04-28 20:10 | 4.46441 | 74.77814 | 25722 ft | 442 kts | 240° |
| 2026-04-28 20:10 | 4.44913 | 74.75151 | 25235 ft | 439 kts | 239° |
| 2026-04-28 20:10 | 4.43414 | 74.72538 | 24756 ft | 436 kts | 239° |
| 2026-04-28 20:11 | 4.41905 | 74.69910 | 24276 ft | 434 kts | 239° |
| 2026-04-28 20:11 | 4.40397 | 74.67282 | 23794 ft | 431 kts | 239° |
| 2026-04-28 20:11 | 4.38916 | 74.64700 | 23324 ft | 428 kts | 239° |
| 2026-04-28 20:11 | 4.37437 | 74.62125 | 22853 ft | 426 kts | 239° |
| 2026-04-28 20:12 | 4.35966 | 74.59563 | 22385 ft | 423 kts | 239° |
| 2026-04-28 20:12 | 4.34505 | 74.57016 | 21927 ft | 420 kts | 239° |
| 2026-04-28 20:12 | 4.33070 | 74.54517 | 21471 ft | 417 kts | 239° |
| 2026-04-28 20:12 | 4.32104 | 74.52835 | 21163 ft | 415 kts | 239° |
| 2026-04-28 20:13 | 4.30196 | 74.49513 | 20554 ft | 411 kts | 238° |
| 2026-04-28 20:13 | 4.28768 | 74.47026 | 20113 ft | 408 kts | 239° |
| 2026-04-28 20:13 | 4.27368 | 74.44589 | 19665 ft | 405 kts | 238° |
| 2026-04-28 20:13 | 4.25968 | 74.42152 | 19219 ft | 402 kts | 238° |
| 2026-04-28 20:14 | 4.24592 | 74.39757 | 18780 ft | 398 kts | 238° |
| 2026-04-28 20:14 | 4.23204 | 74.37341 | 18336 ft | 395 kts | 238° |
| 2026-04-28 20:14 | 4.21855 | 74.34994 | 17905 ft | 392 kts | 238° |
| 2026-04-28 20:14 | 4.20503 | 74.32641 | 17472 ft | 388 kts | 238° |
| 2026-04-28 20:15 | 4.19155 | 74.30296 | 17042 ft | 385 kts | 238° |
| 2026-04-28 20:15 | 4.17826 | 74.27984 | 16617 ft | 382 kts | 238° |
| 2026-04-28 20:15 | 4.16504 | 74.25684 | 16195 ft | 379 kts | 238° |
| 2026-04-28 20:15 | 4.15211 | 74.23434 | 15784 ft | 375 kts | 239° |
| 2026-04-28 20:16 | 4.13909 | 74.21169 | 15366 ft | 372 kts | 239° |
| 2026-04-28 20:16 | 4.12619 | 74.18926 | 14955 ft | 369 kts | 239° |
| 2026-04-28 20:16 | 4.11353 | 74.16724 | 14550 ft | 367 kts | 239° |
| 2026-04-28 20:16 | 4.10081 | 74.14512 | 14144 ft | 364 kts | 239° |
| 2026-04-28 20:17 | 4.08826 | 74.12329 | 13744 ft | 361 kts | 239° |
| 2026-04-28 20:17 | 4.07586 | 74.10175 | 13346 ft | 357 kts | 240° |
| 2026-04-28 20:17 | 4.06345 | 74.08017 | 12954 ft | 355 kts | 240° |
| 2026-04-28 20:17 | 4.05115 | 74.05877 | 12561 ft | 352 kts | 240° |
| 2026-04-28 20:18 | 4.03898 | 74.03763 | 12172 ft | 350 kts | 240° |
| 2026-04-28 20:18 | 4.03099 | 74.02372 | 11916 ft | 347 kts | 240° |
| 2026-04-28 20:18 | 4.01504 | 73.99600 | 11409 ft | 341 kts | 240° |
| 2026-04-28 20:18 | 4.00322 | 73.97547 | 11028 ft | 333 kts | 240° |
| 2026-04-28 20:19 | 3.99193 | 73.95583 | 10698 ft | 322 kts | 240° |
| 2026-04-28 20:19 | 3.98089 | 73.93665 | 10390 ft | 313 kts | 240° |
| 2026-04-28 20:19 | 3.97010 | 73.91790 | 10055 ft | 305 kts | 240° |
| 2026-04-28 20:19 | 3.95969 | 73.89982 | 9725 ft | 298 kts | 240° |
| 2026-04-28 20:20 | 3.95076 | 73.88128 | 9386 ft | 292 kts | 258° |
| 2026-04-28 20:20 | 3.94939 | 73.86138 | 9141 ft | 290 kts | 270° |
| 2026-04-28 20:20 | 3.94927 | 73.84100 | 8811 ft | 290 kts | 270° |
| 2026-04-28 20:20 | 3.94921 | 73.82089 | 8488 ft | 290 kts | 270° |
| 2026-04-28 20:21 | 3.94919 | 73.80082 | 8168 ft | 288 kts | 270° |
| 2026-04-28 20:21 | 3.94918 | 73.78084 | 7849 ft | 287 kts | 270° |
| 2026-04-28 20:21 | 3.94917 | 73.76097 | 7559 ft | 285 kts | 270° |
| 2026-04-28 20:21 | 3.94917 | 73.74128 | 7273 ft | 284 kts | 270° |
| 2026-04-28 20:22 | 3.94917 | 73.72156 | 6962 ft | 283 kts | 270° |
| 2026-04-28 20:22 | 3.94917 | 73.70180 | 6648 ft | 280 kts | 270° |
| 2026-04-28 20:22 | 3.94917 | 73.68250 | 6341 ft | 279 kts | 270° |
| 2026-04-28 20:22 | 3.94917 | 73.66304 | 6035 ft | 278 kts | 270° |
| 2026-04-28 20:23 | 3.94916 | 73.64365 | 5753 ft | 273 kts | 270° |
| 2026-04-28 20:23 | 3.94913 | 73.62498 | 5471 ft | 265 kts | 270° |
| 2026-04-28 20:23 | 3.94910 | 73.60678 | 5185 ft | 258 kts | 270° |
| 2026-04-28 20:23 | 3.94908 | 73.59505 | 4998 ft | 253 kts | 270° |
| 2026-04-28 20:24 | 3.94904 | 73.57203 | 4635 ft | 245 kts | 270° |
| 2026-04-28 20:24 | 3.94912 | 73.55525 | 4369 ft | 238 kts | 276° |
| 2026-04-28 20:24 | 3.95550 | 73.54052 | 4130 ft | 229 kts | 317° |
| 2026-04-28 20:24 | 3.96933 | 73.53359 | 3808 ft | 227 kts | 353° |
| 2026-04-28 20:25 | 3.98511 | 73.53199 | 3513 ft | 224 kts | 354° |
| 2026-04-28 20:25 | 4.00060 | 73.53110 | 3190 ft | 223 kts | 0° |
| 2026-04-28 20:25 | 4.01600 | 73.53120 | 2912 ft | 219 kts | 0° |
| 2026-04-28 20:25 | 4.03107 | 73.53123 | 2672 ft | 211 kts | 360° |
| 2026-04-28 20:26 | 4.04573 | 73.53122 | 2358 ft | 207 kts | 0° |
| 2026-04-28 20:26 | 4.05994 | 73.53120 | 2083 ft | 202 kts | 0° |
| 2026-04-28 20:26 | 4.07376 | 73.53119 | 1923 ft | 189 kts | 360° |
| 2026-04-28 20:26 | 4.08633 | 73.53117 | 1836 ft | 172 kts | 360° |
| 2026-04-28 20:27 | 4.09754 | 73.53116 | 1654 ft | 153 kts | 360° |
| 2026-04-28 20:27 | 4.10806 | 73.53114 | 1449 ft | 143 kts | 359° |
| 2026-04-28 20:27 | 4.11745 | 73.53114 | 1265 ft | 126 kts | 359° |
| 2026-04-28 20:27 | 4.12605 | 73.53112 | 1108 ft | 123 kts | 359° |
| 2026-04-28 20:28 | 4.13475 | 73.53110 | 968 ft | 124 kts | 359° |
| 2026-04-28 20:28 | 4.14341 | 73.53109 | 818 ft | 125 kts | 358° |
| 2026-04-28 20:28 | 4.15227 | 73.53108 | 657 ft | 125 kts | 359° |
| 2026-04-28 20:28 | 4.16098 | 73.53105 | 500 ft | 125 kts | 358° |
| 2026-04-28 20:29 | 4.16973 | 73.53090 | 360 ft | 125 kts | 359° |
| 2026-04-28 20:29 | 4.17852 | 73.53099 | 211 ft | 125 kts | 359° |
| 2026-04-28 20:29 | 4.18733 | 73.53105 | 33 ft | 125 kts | 358° |
| 2026-04-28 20:29 | 4.19531 | 73.53098 | 12 ft | 94 kts | 0° |
| 2026-04-28 20:30 | 4.19992 | 73.53096 | 10 ft | 41 kts | 1° |
| 2026-04-28 20:30 | 4.20269 | 73.53098 | 10 ft | 31 kts | 1° |
| 2026-04-28 20:30 | 4.20370 | 73.53045 | 11 ft | 14 kts | 272° |
| 2026-04-28 20:30 | 4.20366 | 73.52941 | 11 ft | 15 kts | 264° |
| 2026-04-28 20:31 | 4.20286 | 73.52896 | 11 ft | 15 kts | 178° |
| 2026-04-28 20:31 | 4.20173 | 73.52901 | 11 ft | 16 kts | 177° |
| 2026-04-28 20:31 | 4.20053 | 73.52900 | 11 ft | 17 kts | 179° |
| 2026-04-28 20:31 | 4.19924 | 73.52899 | 11 ft | 19 kts | 182° |
| 2026-04-28 20:32 | 4.19787 | 73.52902 | 12 ft | 19 kts | 175° |
| 2026-04-28 20:32 | 4.19648 | 73.52908 | 12 ft | 20 kts | 178° |
| 2026-04-28 20:32 | 4.19586 | 73.52910 | 12 ft | 5 kts | 176° |
| 2026-04-28 20:32 | 4.19550 | 73.52910 | 13 ft | 5 kts | 181° |
| 2026-04-28 20:33 | 4.19508 | 73.52909 | 14 ft | 6 kts | 181° |
| 2026-04-28 20:33 | 4.19454 | 73.52909 | 15 ft | 9 kts | 179° |
| 2026-04-28 20:33 | 4.19386 | 73.52911 | 15 ft | 10 kts | 178° |
| 2026-04-28 20:33 | 4.19310 | 73.52913 | 15 ft | 11 kts | 179° |
| 2026-04-28 20:34 | 4.19224 | 73.52914 | 16 ft | 12 kts | 180° |
| 2026-04-28 20:34 | 4.19137 | 73.52912 | 17 ft | 12 kts | 182° |
| 2026-04-28 20:34 | 4.19049 | 73.52902 | 17 ft | 12 kts | 217° |
| 2026-04-28 20:34 | 4.19056 | 73.52840 | 17 ft | 5 kts | 306° |
| 2026-04-28 20:35 | 4.19065 | 73.52808 | 17 ft | 5 kts | 268° |
| 2026-04-28 20:35 | 4.19065 | 73.52792 | 16 ft | 0 kts | 269° |